Time,TemperatureF,DewpointF,PressureIn,WindDirection,WindDirectionDegrees,WindSpeedMPH,WindSpeedGustMPH,Humidity,HourlyPrecipIn,Conditions,Clouds,dailyrainin,SolarRadiationWatts/m^2,SoftwareType,DateUTC
2013-03-20 00:01:00,64.8,60.8,29.97,WNW,290,2.0,25.0,87,0.00,,,0.01,0,Wunderground v.1.15,2013-03-20 04:01:00,
2013-03-20 01:00:00,63.8,60.5,29.97,NNW,344,2.0,25.0,89,0.00,,,0.00,0,Wunderground v.1.15,2013-03-20 05:00:00,
2013-03-20 02:00:00,64.7,61.1,29.96,North,10,2.0,25.0,88,0.00,,,0.00,0,Wunderground v.1.15,2013-03-20 06:00:00,
2013-03-20 03:00:00,62.2,60.2,29.94,North,355,2.0,25.0,93,0.00,,,0.00,0,Wunderground v.1.15,2013-03-20 07:00:00,
2013-03-20 04:00:00,61.3,59.6,29.93,NNW,346,2.0,25.0,94,0.00,,,0.00,0,Wunderground v.1.15,2013-03-20 08:00:00,
2013-03-20 05:00:00,61.7,60.3,29.92,NNW,346,2.0,25.0,95,0.00,,,0.00,0,Wunderground v.1.15,2013-03-20 09:00:00,
2013-03-20 06:00:00,63.0,61.8,29.93,ENE,61,2.0,25.0,96,0.00,,,0.00,0,Wunderground v.1.15,2013-03-20 10:00:00,
2013-03-20 07:00:00,63.8,62.3,29.94,East,82,1.0,25.0,95,0.00,,,0.00,0,Wunderground v.1.15,2013-03-20 11:00:00,
2013-03-20 08:00:00,63.8,62.0,29.95,SE,142,1.0,25.0,94,0.00,,,0.00,9,Wunderground v.1.15,2013-03-20 12:00:00,
2013-03-20 09:00:00,64.5,63.0,29.96,ENE,59,2.0,25.0,95,0.00,,,0.00,90,Wunderground v.1.15,2013-03-20 13:00:00,
2013-03-20 10:00:00,67.6,64.9,29.96,East,92,5.0,25.0,91,0.00,,,0.00,216,Wunderground v.1.15,2013-03-20 14:00:00,
2013-03-20 11:00:00,70.3,65.9,29.97,SE,137,4.0,25.0,86,0.00,,,0.00,244,Wunderground v.1.15,2013-03-20 15:00:00,
2013-03-20 12:00:00,72.2,65.3,29.96,South,178,4.0,25.0,79,0.00,,,0.00,297,Wunderground v.1.15,2013-03-20 16:00:00,
2013-03-20 13:00:00,73.7,64.5,29.92,SSW,204,1.0,25.0,73,0.00,,,0.00,315,Wunderground v.1.15,2013-03-20 17:00:00,
2013-03-20 14:00:00,72.8,64.0,29.90,WSW,240,6.0,25.0,74,0.00,,,0.00,190,Wunderground v.1.15,2013-03-20 18:00:00,
2013-03-20 15:00:00,73.8,62.2,29.86,West,270,9.0,25.0,67,0.00,,,0.00,315,Wunderground v.1.15,2013-03-20 19:00:00,
2013-03-20 16:00:00,73.2,59.4,29.83,WSW,249,10.0,25.0,62,0.00,,,0.00,253,Wunderground v.1.15,2013-03-20 20:00:00,
2013-03-20 17:00:00,72.3,60.3,29.81,WSW,239,5.0,25.0,66,0.00,,,0.00,148,Wunderground v.1.15,2013-03-20 21:00:00,
2013-03-20 18:00:00,71.9,59.1,29.82,West,260,4.0,25.0,64,0.00,,,0.00,104,Wunderground v.1.15,2013-03-20 22:00:00,
2013-03-20 19:00:00,69.9,56.7,29.85,WSW,243,9.0,25.0,63,0.00,,,0.00,9,Wunderground v.1.15,2013-03-20 23:00:00,
2013-03-20 20:00:00,66.0,59.7,29.88,West,261,10.0,25.0,80,0.00,,,0.00,0,Wunderground v.1.15,2013-03-21 00:00:00,
2013-03-20 21:00:00,63.9,60.3,29.90,West,261,8.0,25.0,88,0.00,,,0.00,0,Wunderground v.1.15,2013-03-21 01:00:00,
2013-03-20 22:00:00,62.8,59.5,29.88,West,265,4.0,25.0,89,0.00,,,0.00,0,Wunderground v.1.15,2013-03-21 02:00:00,
2013-03-20 23:00:00,59.4,55.5,29.88,North,5,0.0,25.0,87,0.00,,,0.00,0,Wunderground v.1.15,2013-03-21 03:00:00,